Weather reports worldwide

Advertisment
Lekeitio, Spain (8024): temperature & dewpoint: 11.09.2019 23:00:00 - 17.09.2019 23:00:00 (CEST)Lekeitio, Spain (8024): wind speed & gusts: 11.09.2019 23:00:00 - 17.09.2019 23:00:00 (CEST)Lekeitio, Spain (8024): wind direction: 11.09.2019 23:00:00 - 17.09.2019 23:00:00 (CEST)
Date & Time tt [°C] td [°C] ff [km/h] ff [kn] fx [km/h] fx [kn] dd
17.09.2019 23:00:00 17,9 17,1 8 4 20 11 W
17.09.2019 22:00:00 18,3 17,5 13 7 20 11 W
17.09.2019 21:00:00 18,2 17,4 10 6 16 8 W
17.09.2019 20:00:00 18,1 17,3 12 6 17 9 WNW
17.09.2019 19:00:00 18,8 18,0 10 5 16 9 WNW
17.09.2019 18:00:00 18,3 17,5 12 6 19 10 WNW
17.09.2019 17:00:00 19,0 18,2 14 8 25 13 WNW
17.09.2019 16:00:00 19,9 18,7 18 10 22 12 NW
17.09.2019 15:00:00 20,2 18,1 9 5 14 7 WNW
17.09.2019 14:00:00 20,5 18,3 2 1 5 3 ENE
17.09.2019 13:00:00 20,5 18,3 2 1 8 4 ENE
17.09.2019 12:00:00 21,1 18,1 4 2 9 5 E
17.09.2019 11:00:00 22,4 18,6 6 3 10 5 SE
17.09.2019 10:00:00 19,6 17,7 2 1 13 7 SE
17.09.2019 09:00:00 17,6 16,1 2 1 10 5 SSE
17.09.2019 08:00:00 16,9 15,4 0 0 8 5 SSW
17.09.2019 07:00:00 16,6 15,1 6 3 10 5 S
17.09.2019 06:00:00 16,8 15,5 2 1 13 7 SSW
17.09.2019 05:00:00 16,5 15,0 9 5 11 6 S
17.09.2019 04:00:00 16,8 15,3 5 3 10 5 SW
17.09.2019 03:00:00 18,6 16,8 5 3 12 7 WSW
17.09.2019 02:00:00 18,9 16,9 9 5 16 8 WNW
17.09.2019 01:00:00 17,8 15,6 6 4 11 6 SW
17.09.2019 00:00:00 17,4 14,7 4 2 13 7 SSW
16.09.2019 23:00:00 17,8 15,1 0 0 13 7 W
16.09.2019 22:00:00 19,0 16,4 7 4 9 5 W
16.09.2019 21:00:00 19,5 15,4 3 2 9 5 W
16.09.2019 20:00:00 20,8 16,8 3 2 14 8 S
16.09.2019 19:00:00 22,2 18,4 9 5 12 7 SSE
16.09.2019 18:00:00 23,0 19,2 1 1 10 6 SE
16.09.2019 17:00:00 22,1 18,5 1 1 14 8 ESE
16.09.2019 16:00:00 21,3 18,7 8 5 15 8 SE
16.09.2019 15:00:00 21,4 19,3 9 5 15 8 SE
16.09.2019 14:00:00 21,2 19,1 5 3 12 6 ESE
16.09.2019 13:00:00 20,7 18,8 3 1 9 5 S
16.09.2019 12:00:00 19,9 18,4 0 0 0 0 N
16.09.2019 11:00:00 18,3 17,1 0 0 12 6 N
16.09.2019 10:00:00 18,0 17,2 7 4 13 7 S
16.09.2019 09:00:00 17,2 16,4 10 5 17 9 S
16.09.2019 08:00:00 17,1 16,3 7 4 14 8 S
16.09.2019 07:00:00 17,4 16,6 8 5 14 8 S
16.09.2019 06:00:00 17,7 16,7 10 6 14 8 S
16.09.2019 05:00:00 17,8 16,7 6 3 13 7 S
16.09.2019 04:00:00 18,1 16,8 10 6 22 12 W
16.09.2019 03:00:00 18,3 16,8 13 7 20 11 S
16.09.2019 02:00:00 19,1 16,9 10 6 22 12 S
16.09.2019 01:00:00 19,4 16,4 13 7 22 12 SSE
16.09.2019 00:00:00 19,7 16,5 16 9 27 14 SE
15.09.2019 23:00:00 20,4 16,2 18 10 31 17 S
15.09.2019 22:00:00 18,8 16,0 8 4 14 8 S
15.09.2019 21:00:00 18,7 15,8 10 5 22 12 S
15.09.2019 20:00:00 19,1 16,0 15 8 22 12 S
15.09.2019 19:00:00 19,2 16,8 14 8 28 15 S
15.09.2019 18:00:00 20,1 15,7 19 10 37 20 S
15.09.2019 17:00:00 22,7 14,3 11 6 31 17 S
15.09.2019 16:00:00 20,4 19,1 0 0 9 5 NW
15.09.2019 15:00:00 20,2 19,0 8 4 15 8 NW
15.09.2019 14:00:00 20,0 19,0 14 8 18 10 NW
15.09.2019 13:00:00 19,6 18,4 13 7 16 9 NW
15.09.2019 12:00:00 21,1 18,9 8 5 10 5 WNW
15.09.2019 11:00:00 20,9 18,3 0 0 0 0 N
15.09.2019 10:00:00 20,4 17,6 0 0 9 5 N
15.09.2019 09:00:00 18,1 16,8 4 2 9 5 S
15.09.2019 08:00:00 17,7 16,4 2 1 11 6 S
15.09.2019 07:00:00 17,1 15,8 8 4 14 7 S
15.09.2019 06:00:00 18,0 16,2 0 0 16 9 N
15.09.2019 05:00:00 18,4 16,2 2 1 11 6 W
15.09.2019 04:00:00 18,2 16,2 0 0 11 6 N
15.09.2019 03:00:00 17,5 15,7 0 0 8 5 SSW
15.09.2019 02:00:00 17,6 15,8 0 0 7 4 N
15.09.2019 01:00:00 18,5 15,7 0 0 11 6 SSW
15.09.2019 00:00:00 18,9 15,4 5 3 13 7 S
14.09.2019 23:00:00 19,4 15,9 10 5 14 7 S
14.09.2019 22:00:00 19,5 15,4 9 5 16 9 S
14.09.2019 21:00:00 20,1 15,3 10 6 18 10 S
14.09.2019 20:00:00 20,9 15,7 10 6 16 8 SSE
14.09.2019 19:00:00 21,5 16,0 9 5 16 9 SE
14.09.2019 18:00:00 20,9 17,7 11 6 16 9 SE
14.09.2019 17:00:00 24,1 17,6 9 5 16 8 SE
14.09.2019 16:00:00 22,8 17,7 9 5 14 7 SE
14.09.2019 15:00:00 23,4 18,7 9 5 15 8 SE
14.09.2019 14:00:00 22,4 19,0 8 5 18 10 ESE
14.09.2019 13:00:00 22,0 19,0 8 5 15 8 SE
14.09.2019 12:00:00 21,7 18,9 1 1 7 4 ESE
14.09.2019 11:00:00 19,2 17,5 0 0 7 4 WNW
14.09.2019 10:00:00 18,4 16,7 2 1 14 8 NNW
14.09.2019 09:00:00 18,4 17,1 6 3 11 6 SE
14.09.2019 08:00:00 17,4 15,6 0 0 14 7 N
14.09.2019 07:00:00 18,0 15,6 11 6 16 9 W
14.09.2019 06:00:00 16,8 15,2 13 7 19 10 S
14.09.2019 05:00:00 17,2 15,5 4 2 12 7 SSW
14.09.2019 04:00:00 16,6 14,1 5 3 18 10 SW
14.09.2019 03:00:00 16,8 14,8 4 2 10 6 S
14.09.2019 02:00:00 16,4 14,9 2 1 14 8 WSW
14.09.2019 01:00:00 15,4 14,6 6 4 19 10 S
14.09.2019 00:00:00 16,8 16,0 6 3 10 5 S
13.09.2019 23:00:00 16,9 16,1 0 0 7 4 N
13.09.2019 22:00:00 18,0 17,0 4 2 9 5 W
13.09.2019 21:00:00 18,3 17,3 6 3 9 5 W
13.09.2019 20:00:00 18,3 17,3 6 3 13 7 WNW
13.09.2019 19:00:00 18,4 17,1 3 2 12 7 W
13.09.2019 18:00:00 18,8 17,3 5 3 15 8 NW
13.09.2019 17:00:00 19,0 17,7 12 6 20 11 NW
13.09.2019 16:00:00 18,9 17,6 16 9 24 13 NW
13.09.2019 15:00:00 18,3 17,1 16 9 23 12 NW
13.09.2019 14:00:00 18,0 16,9 21 11 26 14 NW
13.09.2019 13:00:00 17,4 16,1 19 11 25 14 NW
13.09.2019 12:00:00 18,1 16,8 10 6 15 8 NW
13.09.2019 11:00:00 17,8 16,5 8 4 11 6 WNW
13.09.2019 10:00:00 17,0 15,7 4 2 13 7 S
13.09.2019 09:00:00 14,9 14,1 9 5 14 7 S
13.09.2019 08:00:00 15,9 15,1 6 3 15 8 SW
13.09.2019 07:00:00 13,6 12,8 8 5 18 10 SSW
13.09.2019 06:00:00 13,2 12,4 10 5 18 10 SSW
13.09.2019 05:00:00 14,3 13,5 5 3 12 7 WSW
13.09.2019 04:00:00 13,9 13,0 6 3 15 8 WSW
13.09.2019 03:00:00 13,5 12,4 6 4 10 5 SW
13.09.2019 02:00:00 14,0 12,9 1 1 13 7 SW
13.09.2019 01:00:00 14,1 13,0 0 0 9 5 N
13.09.2019 00:00:00 14,7 13,6 0 0 12 6 N
12.09.2019 23:00:00 15,1 13,8 6 4 13 7 S
12.09.2019 22:00:00 16,1 14,6 7 4 14 7 S
12.09.2019 21:00:00 16,7 14,7 9 5 12 7 S
12.09.2019 20:00:00 18,4 14,9 7 4 10 5 SSE
12.09.2019 19:00:00 20,3 15,5 2 1 10 5 E
12.09.2019 18:00:00 20,7 14,8 6 4 13 7 SE
12.09.2019 17:00:00 20,3 15,3 4 2 12 7 E
12.09.2019 16:00:00 18,7 14,2 6 3 13 7 ENE
12.09.2019 15:00:00 18,3 14,0 3 2 11 6 NE
12.09.2019 14:00:00 18,4 14,1 5 3 12 7 ENE
12.09.2019 13:00:00 19,3 15,6 3 2 14 8 SE
12.09.2019 12:00:00 19,0 15,5 6 3 16 8 ESE
12.09.2019 11:00:00 18,4 15,5 6 3 13 7 SE
12.09.2019 10:00:00 17,2 15,4 6 3 13 7 SE
12.09.2019 09:00:00 16,0 14,7 9 5 15 8 S
12.09.2019 08:00:00 14,5 13,5 11 6 17 9 S
12.09.2019 07:00:00 15,0 13,7 7 4 12 7 S
12.09.2019 06:00:00 15,8 14,5 7 4 11 6 S
12.09.2019 05:00:00 15,7 14,4 5 3 13 7 ESE
12.09.2019 04:00:00 16,1 14,6 3 2 10 6 E
12.09.2019 03:00:00 16,7 15,1 5 3 13 7 E
12.09.2019 02:00:00 16,5 14,7 6 3 15 8 SE
12.09.2019 01:00:00 17,7 15,1 5 3 16 9 NE
12.09.2019 00:00:00 17,9 15,2 6 3 18 10 NE
11.09.2019 23:00:00 17,8 14,9 8 5 17 9 NNE

tt = temperature
td = dewpoint
ff = wind speed
fx = gusts
dd = wind direction

Next stations